Очерёдность:

Vox populi vox Dei - Ирвин Смит.

Contumacia cumulat poenam - Левий Акерман (ГМ).

Ad meliora tempora - Олуо Боссард (ГМ).



Вверх страницы

Вниз страницы

Advancing Giants: Palladium Of Liberty

Объявление

Информация о пользователе

Привет, Гость! Войдите или зарегистрируйтесь.


Вы здесь » Advancing Giants: Palladium Of Liberty » Школа выживания


Школа выживания

Тем 31 страница 60 из 72

Тема Ответов Просмотров Последнее сообщение
1 25 2022-11-04 10:38:04  qcdigitalwu
32 Good models  Warsawvop
0 25 2022-10-27 16:41:35  Warsawvop
0 19 2022-10-23 18:10:21  AgustinWax
34 handwritten texts,  Visionxgo
0 18 2022-10-19 13:55:36  Visionxgo
35 have a huge impact  RainMachinezcr
0 14 2022-10-17 15:39:42  RainMachinezcr
0 14 2022-10-16 21:59:55  Nespressobrs
37 Проходной двор  Levi  [ 1 2 3  22 ]
858 25828 2022-10-15 03:24:35  Carpettpz
0 16 2022-10-10 07:08:42  DavidHag
39 indistinct (even for a person  Fingerboardnmw
0 12 2022-10-08 18:34:06  Fingerboardnmw
0 7 2022-10-06 18:51:56  Broncokuz
0 10 2022-10-05 23:37:07  Vintageidy
42 Examining handwritten texts  Sprinklernfm
2 48 2022-10-05 07:57:11  Serieshki
43 K. D. Balmont and barely  Leupoldqkt
0 10 2022-09-21 16:55:58  Leupoldqkt
0 14 2022-09-13 07:03:47  Dormaneco
0 7 2022-09-13 06:46:27  Wirelessytm
0 8 2022-09-13 05:52:11  Amazonnnmid
47 and an objective plan.  Blendernro
0 18 2022-09-08 00:49:03  Blendernro
48 and print on printers).  Documentbwy
0 11 2022-09-05 18:38:20  Documentbwy
1 15 2022-08-31 17:21:04  Leupoldovi
50 as a scientific fact.  Epiphoneedv
0 5 2022-08-31 14:57:21  Epiphoneedv
51 usually occurs within  Edelbrockqjj
0 8 2022-08-30 14:13:08  Edelbrockqjj
0 6 2022-08-30 08:26:23  Blendereug
53 handwriting matters  Fortressvzn
0 13 2022-08-29 11:07:37  Fortressvzn
1 19 2022-08-25 23:06:40  sex porn
0 10 2022-08-23 21:32:40  Weaponrmc
0 8 2022-08-22 14:51:02  Incipioqae
57 writing and based on his  Plasticpgv
0 5 2022-08-22 05:53:19  Plasticpgv
0 7 2022-08-21 09:29:28  Blenderfap
0 6 2022-08-21 05:37:48  Sprinklererr
0 6 2022-08-15 15:00:57  Holographiceuu

Вы здесь » Advancing Giants: Palladium Of Liberty » Школа выживания